PWSweather.com
Personal Weather Stations
Station Observations
FARMTALK
Wv, Procious, WV 25164

WvProcious, WV 25164

Lat: 38.483056, Lon: -81.159722

Elevation: 784

Station Type: Weatherwise 1090

www.fitzweather.com

High Low Average
Temperature 60.8°F16.0°C 24.1°F-4.4°C 41.5°F5.3°C
Dew Point 33.0°F0.6°C 20.6°F-6.3°C 27.1°F-2.7°C
Winds 13.1 mph 21.1 kmh Calm Calm 4.0 mph SE6.4 kmh SE
Wind Gusts 22.1 mph35.6 kmh -- 6.0 mph9.7 kmh
Humidity 95% 24% 63%
Pressure 29.95 in1014.2 mb 29.70 in1005.8 mb -
Precipitation 0.01 in0.3 mm - -
Hour Temp Dew Point Humidity Winds Wind Gusts Pressure Precip Precip Rate Daily Precip Total
12:00 AM 25.3°F-3.7°C 23.1°F-4.9°C 91% Calm Calm -- 29.96 in1014.6 mb 0.00 in0.0 mm 0.00 in0.0 mm 0.00 in0.0 mm
12:10 AM 25.2°F-3.8°C 22.9°F-5.1°C 91% Calm Calm -- 29.96 in1014.6 mb 0.00 in0.0 mm 0.00 in0.0 mm 0.00 in0.0 mm
12:20 AM 25.0°F-3.9°C 22.8°F-5.1°C 91% 0.1 mph N0.2 kmh N 0.7 mph1.1 kmh 29.96 in1014.6 mb 0.00 in0.0 mm 0.00 in0.0 mm 0.00 in0.0 mm
12:30 AM 24.8°F-4.0°C 22.8°F-5.1°C 92% Calm Calm -- 29.95 in1014.2 mb 0.00 in0.0 mm 0.00 in0.0 mm 0.00 in0.0 mm
12:40 AM 24.6°F-4.1°C 22.7°F-5.2°C 92% Calm Calm -- 29.96 in1014.6 mb 0.00 in0.0 mm 0.00 in0.0 mm 0.00 in0.0 mm
12:50 AM 24.4°F-4.2°C 22.5°F-5.3°C 92% Calm Calm -- 29.95 in1014.2 mb 0.00 in0.0 mm 0.00 in0.0 mm 0.00 in0.0 mm
01:00 AM 24.4°F-4.2°C 22.7°F-5.2°C 93% Calm Calm -- 29.95 in1014.2 mb 0.00 in0.0 mm 0.00 in0.0 mm 0.00 in0.0 mm
01:10 AM 24.3°F-4.3°C 22.6°F-5.2°C 93% Calm Calm -- 29.95 in1014.2 mb 0.00 in0.0 mm 0.00 in0.0 mm 0.00 in0.0 mm
01:20 AM 24.1°F-4.4°C 22.4°F-5.3°C 93% Calm Calm -- 29.95 in1014.2 mb 0.00 in0.0 mm 0.00 in0.0 mm 0.00 in0.0 mm
01:30 AM 24.1°F-4.4°C 22.4°F-5.3°C 93% Calm Calm -- 29.95 in1014.2 mb 0.00 in0.0 mm 0.00 in0.0 mm 0.00 in0.0 mm
01:40 AM 24.1°F-4.4°C 22.6°F-5.2°C 94% Calm Calm -- 29.95 in1014.2 mb 0.00 in0.0 mm 0.00 in0.0 mm 0.00 in0.0 mm
01:50 AM 24.3°F-4.3°C 22.8°F-5.1°C 94% Calm Calm -- 29.93 in1013.5 mb 0.00 in0.0 mm 0.00 in0.0 mm 0.00 in0.0 mm
02:00 AM 24.3°F-4.3°C 22.8°F-5.1°C 94% Calm Calm -- 29.94 in1013.9 mb 0.00 in0.0 mm 0.00 in0.0 mm 0.00 in0.0 mm
02:10 AM 24.4°F-4.2°C 23.0°F-5.0°C 94% Calm Calm -- 29.93 in1013.5 mb 0.00 in0.0 mm 0.00 in0.0 mm 0.00 in0.0 mm
02:20 AM 24.4°F-4.2°C 23.0°F-5.0°C 94% Calm Calm -- 29.92 in1013.2 mb 0.00 in0.0 mm 0.00 in0.0 mm 0.00 in0.0 mm
02:30 AM 24.4°F-4.2°C 23.0°F-5.0°C 94% Calm Calm -- 29.92 in1013.2 mb 0.00 in0.0 mm 0.00 in0.0 mm 0.00 in0.0 mm
02:40 AM 24.4°F-4.2°C 23.0°F-5.0°C 94% 0.4 mph NNE0.6 kmh NNE 0.7 mph1.1 kmh 29.92 in1013.2 mb 0.00 in0.0 mm 0.00 in0.0 mm 0.00 in0.0 mm
02:50 AM 24.4°F-4.2°C 23.0°F-5.0°C 94% 0.3 mph N0.5 kmh N 1.6 mph2.6 kmh 29.91 in1012.9 mb 0.00 in0.0 mm 0.00 in0.0 mm 0.00 in0.0 mm
03:00 AM 24.3°F-4.3°C 22.8°F-5.1°C 94% 0.1 mph NW0.2 kmh NW 1.6 mph2.6 kmh 29.91 in1012.9 mb 0.00 in0.0 mm 0.00 in0.0 mm 0.00 in0.0 mm
03:10 AM 24.3°F-4.3°C 22.8°F-5.1°C 94% 0.1 mph N0.2 kmh N 0.7 mph1.1 kmh 29.90 in1012.5 mb 0.00 in0.0 mm 0.00 in0.0 mm 0.00 in0.0 mm
03:20 AM 24.1°F-4.4°C 22.9°F-5.1°C 95% 0.3 mph NW0.5 kmh NW 0.7 mph1.1 kmh 29.90 in1012.5 mb 0.00 in0.0 mm 0.00 in0.0 mm 0.00 in0.0 mm
03:30 AM 24.3°F-4.3°C 23.1°F-4.9°C 95% 0.5 mph W0.8 kmh W 1.6 mph2.6 kmh 29.89 in1012.2 mb 0.00 in0.0 mm 0.00 in0.0 mm 0.00 in0.0 mm
03:40 AM 24.8°F-4.0°C 23.6°F-4.7°C 95% 0.5 mph NNW0.8 kmh NNW 1.6 mph2.6 kmh 29.88 in1011.9 mb 0.00 in0.0 mm 0.00 in0.0 mm 0.00 in0.0 mm
03:50 AM 25.3°F-3.7°C 24.1°F-4.4°C 95% 0.3 mph N0.5 kmh N 1.6 mph2.6 kmh 29.88 in1011.9 mb 0.00 in0.0 mm 0.00 in0.0 mm 0.00 in0.0 mm
04:00 AM 25.9°F-3.4°C 24.4°F-4.2°C 94% 0.3 mph NNW0.5 kmh NNW 0.7 mph1.1 kmh 29.87 in1011.5 mb 0.00 in0.0 mm 0.00 in0.0 mm 0.00 in0.0 mm
04:10 AM 26.2°F-3.2°C 24.8°F-4.0°C 94% Calm Calm 0.7 mph1.1 kmh 29.86 in1011.2 mb 0.00 in0.0 mm 0.00 in0.0 mm 0.00 in0.0 mm
04:20 AM 26.6°F-3.0°C 25.1°F-3.8°C 94% 0.1 mph SW0.2 kmh SW 1.6 mph2.6 kmh 29.85 in1010.8 mb 0.00 in0.0 mm 0.00 in0.0 mm 0.00 in0.0 mm
04:30 AM 27.0°F-2.8°C 25.2°F-3.8°C 93% Calm Calm -- 29.85 in1010.8 mb 0.00 in0.0 mm 0.00 in0.0 mm 0.00 in0.0 mm
04:40 AM 27.1°F-2.7°C 25.4°F-3.7°C 93% 0.5 mph NNE0.8 kmh NNE 1.6 mph2.6 kmh 29.84 in1010.5 mb 0.00 in0.0 mm 0.00 in0.0 mm 0.00 in0.0 mm
04:50 AM 27.5°F-2.5°C 25.8°F-3.4°C 93% 0.7 mph NW1.1 kmh NW 1.6 mph2.6 kmh 29.83 in1010.2 mb 0.00 in0.0 mm 0.00 in0.0 mm 0.00 in0.0 mm
05:00 AM 27.7°F-2.4°C 25.9°F-3.4°C 93% 0.6 mph N1.0 kmh N 1.6 mph2.6 kmh 29.83 in1010.2 mb 0.00 in0.0 mm 0.00 in0.0 mm 0.00 in0.0 mm
05:10 AM 28.0°F-2.2°C 26.3°F-3.2°C 93% 0.7 mph ENE1.1 kmh ENE 1.6 mph2.6 kmh 29.82 in1009.8 mb 0.00 in0.0 mm 0.00 in0.0 mm 0.00 in0.0 mm
05:20 AM 28.4°F-2.0°C 26.7°F-2.9°C 93% 0.6 mph W1.0 kmh W 2.2 mph3.5 kmh 29.80 in1009.1 mb 0.00 in0.0 mm 0.00 in0.0 mm 0.00 in0.0 mm
05:30 AM 28.8°F-1.8°C 27.0°F-2.8°C 93% 0.7 mph NNW1.1 kmh NNW 1.6 mph2.6 kmh 29.80 in1009.1 mb 0.00 in0.0 mm 0.00 in0.0 mm 0.00 in0.0 mm
05:40 AM 29.1°F-1.6°C 27.4°F-2.6°C 93% 1.2 mph WNW1.9 kmh WNW 1.6 mph2.6 kmh 29.79 in1008.8 mb 0.00 in0.0 mm 0.00 in0.0 mm 0.00 in0.0 mm
05:50 AM 30.2°F-1.0°C 27.6°F-2.4°C 90% 2.1 mph S3.4 kmh S 3.8 mph6.1 kmh 29.78 in1008.5 mb 0.00 in0.0 mm 0.00 in0.0 mm 0.00 in0.0 mm
06:00 AM 31.1°F-0.5°C 28.0°F-2.2°C 88% 1.5 mph N2.4 kmh N 3.1 mph5.0 kmh 29.78 in1008.5 mb 0.00 in0.0 mm 0.00 in0.0 mm 0.00 in0.0 mm
06:10 AM 31.8°F-0.1°C 27.8°F-2.3°C 85% 1.6 mph W2.6 kmh W 1.6 mph2.6 kmh 29.77 in1008.1 mb 0.00 in0.0 mm 0.00 in0.0 mm 0.00 in0.0 mm
06:20 AM 32.4°F0.2°C 28.1°F-2.2°C 84% 1.3 mph ESE2.1 kmh ESE 3.1 mph5.0 kmh 29.77 in1008.1 mb 0.00 in0.0 mm 0.00 in0.0 mm 0.00 in0.0 mm
06:30 AM 33.1°F0.6°C 27.9°F-2.3°C 81% 1.7 mph W2.7 kmh W 3.1 mph5.0 kmh 29.77 in1008.1 mb 0.00 in0.0 mm 0.00 in0.0 mm 0.00 in0.0 mm
06:40 AM 33.1°F0.6°C 27.6°F-2.4°C 80% 2.0 mph S3.2 kmh S 3.1 mph5.0 kmh 29.77 in1008.1 mb 0.00 in0.0 mm 0.00 in0.0 mm 0.00 in0.0 mm
06:50 AM 32.9°F0.5°C 27.7°F-2.4°C 81% 2.5 mph SSW4.0 kmh SSW 3.1 mph5.0 kmh 29.77 in1008.1 mb 0.00 in0.0 mm 0.00 in0.0 mm 0.00 in0.0 mm
07:00 AM 32.9°F0.5°C 27.7°F-2.4°C 81% 2.7 mph SW4.3 kmh SW 3.8 mph6.1 kmh 29.77 in1008.1 mb 0.00 in0.0 mm 0.00 in0.0 mm 0.00 in0.0 mm
07:10 AM 33.4°F0.8°C 27.3°F-2.6°C 78% 3.0 mph SW4.8 kmh SW 3.1 mph5.0 kmh 29.77 in1008.1 mb 0.00 in0.0 mm 0.00 in0.0 mm 0.00 in0.0 mm
07:20 AM 34.9°F1.6°C 27.1°F-2.7°C 73% 3.2 mph E5.1 kmh E 8.3 mph13.4 kmh 29.77 in1008.1 mb 0.00 in0.0 mm 0.00 in0.0 mm 0.00 in0.0 mm
07:30 AM 35.6°F2.0°C 25.7°F-3.5°C 67% 3.1 mph S5.0 kmh S 4.5 mph7.2 kmh 29.77 in1008.1 mb 0.00 in0.0 mm 0.00 in0.0 mm 0.00 in0.0 mm
07:40 AM 35.8°F2.1°C 26.6°F-3.0°C 69% 2.9 mph S4.7 kmh S 4.5 mph7.2 kmh 29.77 in1008.1 mb 0.00 in0.0 mm 0.00 in0.0 mm 0.00 in0.0 mm
07:50 AM 36.5°F2.5°C 27.3°F-2.6°C 69% 2.7 mph SSW4.3 kmh SSW 3.8 mph6.1 kmh 29.78 in1008.5 mb 0.00 in0.0 mm 0.00 in0.0 mm 0.00 in0.0 mm
08:00 AM 36.7°F2.6°C 24.9°F-3.9°C 62% 3.1 mph SSE5.0 kmh SSE 7.6 mph12.2 kmh 29.78 in1008.5 mb 0.00 in0.0 mm 0.00 in0.0 mm 0.00 in0.0 mm
08:10 AM 37.6°F3.1°C 26.1°F-3.3°C 63% 3.5 mph SE5.6 kmh SE 3.8 mph6.1 kmh 29.78 in1008.5 mb 0.00 in0.0 mm 0.00 in0.0 mm 0.00 in0.0 mm
08:20 AM 38.1°F3.4°C 25.9°F-3.4°C 61% 3.3 mph SE5.3 kmh SE 5.4 mph8.7 kmh 29.78 in1008.5 mb 0.00 in0.0 mm 0.00 in0.0 mm 0.00 in0.0 mm
08:30 AM 37.4°F3.0°C 27.5°F-2.5°C 67% 2.1 mph SW3.4 kmh SW 3.8 mph6.1 kmh 29.78 in1008.5 mb 0.00 in0.0 mm 0.00 in0.0 mm 0.00 in0.0 mm
08:40 AM 37.6°F3.1°C 25.8°F-3.4°C 62% 3.1 mph SE5.0 kmh SE 5.4 mph8.7 kmh 29.78 in1008.5 mb 0.00 in0.0 mm 0.00 in0.0 mm 0.00 in0.0 mm
08:50 AM 37.9°F3.3°C 25.3°F-3.7°C 60% 3.1 mph E5.0 kmh E 6.0 mph9.7 kmh 29.79 in1008.8 mb 0.00 in0.0 mm 0.00 in0.0 mm 0.00 in0.0 mm
09:00 AM 38.5°F3.6°C 26.2°F-3.2°C 61% 6.0 mph S9.7 kmh S 9.8 mph15.8 kmh 29.79 in1008.8 mb 0.00 in0.0 mm 0.00 in0.0 mm 0.00 in0.0 mm
09:10 AM 37.8°F3.2°C 25.9°F-3.4°C 62% 1.6 mph SSW2.6 kmh SSW 2.2 mph3.5 kmh 29.79 in1008.8 mb 0.00 in0.0 mm 0.00 in0.0 mm 0.00 in0.0 mm
09:20 AM 39.2°F4.0°C 26.1°F-3.3°C 59% 2.4 mph E3.9 kmh E 4.5 mph7.2 kmh 29.79 in1008.8 mb 0.00 in0.0 mm 0.00 in0.0 mm 0.00 in0.0 mm
09:30 AM 39.4°F4.1°C 25.9°F-3.4°C 58% 3.0 mph ENE4.8 kmh ENE 6.9 mph11.1 kmh 29.79 in1008.8 mb 0.00 in0.0 mm 0.00 in0.0 mm 0.00 in0.0 mm
09:40 AM 41.2°F5.1°C 26.7°F-2.9°C 56% 4.4 mph N7.1 kmh N 6.9 mph11.1 kmh 29.79 in1008.8 mb 0.00 in0.0 mm 0.00 in0.0 mm 0.00 in0.0 mm
09:50 AM 41.9°F5.5°C 26.5°F-3.1°C 54% 4.3 mph ENE6.9 kmh ENE 6.9 mph11.1 kmh 29.79 in1008.8 mb 0.00 in0.0 mm 0.00 in0.0 mm 0.00 in0.0 mm
10:00 AM 43.0°F6.1°C 27.0°F-2.8°C 53% 4.7 mph E7.6 kmh E 6.9 mph11.1 kmh 29.79 in1008.8 mb 0.00 in0.0 mm 0.00 in0.0 mm 0.00 in0.0 mm
10:10 AM 43.9°F6.6°C 27.9°F-2.3°C 53% 6.3 mph E10.1 kmh E 12.1 mph19.5 kmh 29.79 in1008.8 mb 0.00 in0.0 mm 0.00 in0.0 mm 0.00 in0.0 mm
10:20 AM 44.2°F6.8°C 28.2°F-2.1°C 53% 6.6 mph E10.6 kmh E 11.4 mph18.3 kmh 29.79 in1008.8 mb 0.00 in0.0 mm 0.00 in0.0 mm 0.00 in0.0 mm
10:30 AM 45.1°F7.3°C 28.1°F-2.2°C 51% 7.1 mph NE11.4 kmh NE 9.2 mph14.8 kmh 29.79 in1008.8 mb 0.01 in0.3 mm 0.06 in1.5 mm 0.01 in0.3 mm
10:40 AM 45.9°F7.7°C 28.8°F-1.8°C 51% 7.6 mph E12.2 kmh E 13.6 mph21.9 kmh 29.79 in1008.8 mb 0.01 in0.3 mm 0.00 in0.0 mm 0.01 in0.3 mm
10:50 AM 46.8°F8.2°C 29.6°F-1.3°C 51% 6.5 mph E10.5 kmh E 9.8 mph15.8 kmh 29.79 in1008.8 mb 0.01 in0.3 mm 0.00 in0.0 mm 0.01 in0.3 mm
11:00 AM 47.3°F8.5°C 29.1°F-1.6°C 49% 6.4 mph E10.3 kmh E 9.8 mph15.8 kmh 29.79 in1008.8 mb 0.01 in0.3 mm 0.00 in0.0 mm 0.01 in0.3 mm
11:10 AM 47.5°F8.6°C 29.8°F-1.2°C 50% 8.2 mph ENE13.2 kmh ENE 13.0 mph20.9 kmh 29.79 in1008.8 mb 0.01 in0.3 mm 0.00 in0.0 mm 0.01 in0.3 mm
11:20 AM 48.0°F8.9°C 29.8°F-1.2°C 49% 9.0 mph NE14.5 kmh NE 12.1 mph19.5 kmh 29.79 in1008.8 mb 0.01 in0.3 mm 0.00 in0.0 mm 0.01 in0.3 mm
11:30 AM 49.5°F9.7°C 31.1°F-0.5°C 49% 7.3 mph E11.7 kmh E 10.7 mph17.2 kmh 29.78 in1008.5 mb 0.00 in0.0 mm 0.00 in0.0 mm 0.01 in0.3 mm
11:40 AM 49.6°F9.8°C 30.2°F-1.0°C 47% 7.9 mph E12.7 kmh E 11.4 mph18.3 kmh 29.79 in1008.8 mb 0.00 in0.0 mm 0.00 in0.0 mm 0.01 in0.3 mm
11:50 AM 49.8°F9.9°C 31.9°F-0.1°C 50% 8.1 mph ENE13.0 kmh ENE 11.4 mph18.3 kmh 29.78 in1008.5 mb 0.00 in0.0 mm 0.00 in0.0 mm 0.01 in0.3 mm
12:00 PM 50.9°F10.5°C 30.9°F-0.6°C 46% 6.6 mph E10.6 kmh E 8.3 mph13.4 kmh 29.78 in1008.5 mb 0.00 in0.0 mm 0.00 in0.0 mm 0.01 in0.3 mm
12:10 PM 51.3°F10.7°C 30.7°F-0.7°C 45% 6.5 mph NE10.5 kmh NE 9.2 mph14.8 kmh 29.77 in1008.1 mb 0.00 in0.0 mm 0.00 in0.0 mm 0.01 in0.3 mm
12:20 PM 52.9°F11.6°C 31.0°F-0.6°C 43% 5.0 mph E8.0 kmh E 9.2 mph14.8 kmh 29.77 in1008.1 mb 0.00 in0.0 mm 0.00 in0.0 mm 0.01 in0.3 mm
12:30 PM 53.4°F11.9°C 32.1°F0.1°C 44% 5.7 mph SE9.2 kmh SE 9.2 mph14.8 kmh 29.76 in1007.8 mb 0.00 in0.0 mm 0.00 in0.0 mm 0.01 in0.3 mm
12:40 PM 52.2°F11.2°C 29.8°F-1.2°C 42% 9.0 mph E14.5 kmh E 13.0 mph20.9 kmh 29.76 in1007.8 mb 0.00 in0.0 mm 0.00 in0.0 mm 0.01 in0.3 mm
12:50 PM 52.7°F11.5°C 31.4°F-0.3°C 44% 9.2 mph NE14.8 kmh NE 13.0 mph20.9 kmh 29.77 in1008.1 mb 0.00 in0.0 mm 0.00 in0.0 mm 0.01 in0.3 mm
01:00 PM 53.1°F11.7°C 27.5°F-2.5°C 37% 9.4 mph NE15.1 kmh NE 19.0 mph30.6 kmh 29.76 in1007.8 mb 0.00 in0.0 mm 0.00 in0.0 mm 0.01 in0.3 mm
01:10 PM 53.6°F12.0°C 29.3°F-1.5°C 39% 9.6 mph E15.4 kmh E 13.6 mph21.9 kmh 29.75 in1007.5 mb 0.00 in0.0 mm 0.00 in0.0 mm 0.01 in0.3 mm
01:20 PM 54.5°F12.5°C 28.8°F-1.8°C 37% 8.9 mph E14.3 kmh E 18.3 mph29.5 kmh 29.75 in1007.5 mb 0.00 in0.0 mm 0.00 in0.0 mm 0.01 in0.3 mm
01:30 PM 55.2°F12.9°C 29.4°F-1.4°C 37% 9.6 mph E15.4 kmh E 18.3 mph29.5 kmh 29.75 in1007.5 mb 0.00 in0.0 mm 0.00 in0.0 mm 0.01 in0.3 mm
01:40 PM 54.7°F12.6°C 27.6°F-2.4°C 35% 12.4 mph E20.0 kmh E 17.4 mph28.0 kmh 29.75 in1007.5 mb 0.00 in0.0 mm 0.00 in0.0 mm 0.01 in0.3 mm
01:50 PM 55.2°F12.9°C 28.7°F-1.8°C 36% 9.3 mph E15.0 kmh E 19.7 mph31.7 kmh 29.75 in1007.5 mb 0.00 in0.0 mm 0.00 in0.0 mm 0.01 in0.3 mm
02:00 PM 55.4°F13.0°C 27.5°F-2.5°C 34% 10.2 mph E16.4 kmh E 14.5 mph23.3 kmh 29.74 in1007.1 mb 0.00 in0.0 mm 0.00 in0.0 mm 0.01 in0.3 mm
02:10 PM 55.4°F13.0°C 25.3°F-3.7°C 31% 10.1 mph ENE16.3 kmh ENE 15.2 mph24.5 kmh 29.75 in1007.5 mb 0.00 in0.0 mm 0.00 in0.0 mm 0.01 in0.3 mm
02:20 PM 56.8°F13.8°C 27.3°F-2.6°C 32% 13.1 mph SE21.1 kmh SE 15.9 mph25.6 kmh 29.74 in1007.1 mb 0.00 in0.0 mm 0.00 in0.0 mm 0.01 in0.3 mm
02:30 PM 57.0°F13.9°C 27.5°F-2.5°C 32% 10.3 mph E16.6 kmh E 15.2 mph24.5 kmh 29.73 in1006.8 mb 0.00 in0.0 mm 0.00 in0.0 mm 0.01 in0.3 mm
02:40 PM 55.8°F13.2°C 25.6°F-3.6°C 31% 10.8 mph ENE17.4 kmh ENE 13.6 mph21.9 kmh 29.73 in1006.8 mb 0.00 in0.0 mm 0.00 in0.0 mm 0.01 in0.3 mm
02:50 PM 56.5°F13.6°C 26.2°F-3.2°C 31% 12.4 mph ENE20.0 kmh ENE 21.3 mph34.3 kmh 29.72 in1006.4 mb 0.00 in0.0 mm 0.00 in0.0 mm 0.01 in0.3 mm
03:00 PM 56.8°F13.8°C 24.9°F-3.9°C 29% 11.0 mph E17.7 kmh E 15.9 mph25.6 kmh 29.73 in1006.8 mb 0.00 in0.0 mm 0.00 in0.0 mm 0.01 in0.3 mm
03:10 PM 58.1°F14.5°C 24.3°F-4.3°C 27% 8.2 mph E13.2 kmh E 13.0 mph20.9 kmh 29.72 in1006.4 mb 0.00 in0.0 mm 0.00 in0.0 mm 0.01 in0.3 mm
03:20 PM 58.3°F14.6°C 28.6°F-1.9°C 32% 10.0 mph SE16.1 kmh SE 18.3 mph29.5 kmh 29.71 in1006.1 mb 0.00 in0.0 mm 0.00 in0.0 mm 0.01 in0.3 mm
03:30 PM 58.5°F14.7°C 25.5°F-3.6°C 28% 8.3 mph E13.4 kmh E 12.1 mph19.5 kmh 29.71 in1006.1 mb 0.00 in0.0 mm 0.00 in0.0 mm 0.01 in0.3 mm
03:40 PM 57.9°F14.4°C 25.9°F-3.4°C 29% 8.8 mph E14.2 kmh E 13.6 mph21.9 kmh 29.72 in1006.4 mb 0.00 in0.0 mm 0.00 in0.0 mm 0.01 in0.3 mm
03:50 PM 58.6°F14.8°C 26.5°F-3.1°C 29% 9.3 mph NE15.0 kmh NE 13.0 mph20.9 kmh 29.71 in1006.1 mb 0.00 in0.0 mm 0.00 in0.0 mm 0.01 in0.3 mm
04:00 PM 58.6°F14.8°C 24.8°F-4.0°C 27% 9.0 mph ENE14.5 kmh ENE 11.4 mph18.3 kmh 29.71 in1006.1 mb 0.00 in0.0 mm 0.00 in0.0 mm 0.01 in0.3 mm
04:10 PM 59.2°F15.1°C 23.4°F-4.8°C 25% 10.1 mph NE16.3 kmh NE 12.1 mph19.5 kmh 29.71 in1006.1 mb 0.00 in0.0 mm 0.00 in0.0 mm 0.01 in0.3 mm
04:20 PM 60.8°F16.0°C 25.7°F-3.5°C 26% 6.0 mph E9.7 kmh E 10.7 mph17.2 kmh 29.70 in1005.8 mb 0.00 in0.0 mm 0.00 in0.0 mm 0.01 in0.3 mm
04:30 PM 59.5°F15.3°C 24.6°F-4.1°C 26% 10.3 mph E16.6 kmh E 13.6 mph21.9 kmh 29.70 in1005.8 mb 0.00 in0.0 mm 0.00 in0.0 mm 0.01 in0.3 mm
04:40 PM 59.4°F15.2°C 22.6°F-5.2°C 24% 12.2 mph NE19.6 kmh NE 22.1 mph35.6 kmh 29.70 in1005.8 mb 0.00 in0.0 mm 0.00 in0.0 mm 0.01 in0.3 mm
04:50 PM 59.7°F15.4°C 22.9°F-5.1°C 24% 9.8 mph ENE15.8 kmh ENE 19.0 mph30.6 kmh 29.70 in1005.8 mb 0.00 in0.0 mm 0.00 in0.0 mm 0.01 in0.3 mm
05:00 PM 59.9°F15.5°C 23.0°F-5.0°C 24% 10.0 mph E16.1 kmh E 16.8 mph27.0 kmh 29.70 in1005.8 mb 0.00 in0.0 mm 0.00 in0.0 mm 0.01 in0.3 mm
05:10 PM 59.4°F15.2°C 23.6°F-4.7°C 25% 10.0 mph E16.1 kmh E 14.5 mph23.3 kmh 29.70 in1005.8 mb 0.00 in0.0 mm 0.00 in0.0 mm 0.01 in0.3 mm
05:20 PM 57.9°F14.4°C 24.2°F-4.3°C 27% 8.7 mph SE14.0 kmh SE 13.6 mph21.9 kmh 29.70 in1005.8 mb 0.00 in0.0 mm 0.00 in0.0 mm 0.01 in0.3 mm
05:30 PM 57.4°F14.1°C 25.4°F-3.7°C 29% 8.4 mph ENE13.5 kmh ENE 13.6 mph21.9 kmh 29.70 in1005.8 mb 0.00 in0.0 mm 0.00 in0.0 mm 0.01 in0.3 mm
05:40 PM 57.0°F13.9°C 21.6°F-5.8°C 25% 10.6 mph ENE17.1 kmh ENE 13.6 mph21.9 kmh 29.70 in1005.8 mb 0.00 in0.0 mm 0.00 in0.0 mm 0.01 in0.3 mm
05:50 PM 56.8°F13.8°C 22.3°F-5.4°C 26% 9.6 mph ENE15.4 kmh ENE 13.6 mph21.9 kmh 29.70 in1005.8 mb 0.00 in0.0 mm 0.00 in0.0 mm 0.01 in0.3 mm
06:00 PM 56.8°F13.8°C 23.2°F-4.9°C 27% 8.3 mph E13.4 kmh E 13.0 mph20.9 kmh 29.70 in1005.8 mb 0.00 in0.0 mm 0.00 in0.0 mm 0.01 in0.3 mm
06:14 PM 56.5°F13.6°C 22.9°F-5.1°C 27% 8.3 mph N13.4 kmh N 8.3 mph13.4 kmh 29.71 in1006.1 mb 0.00 in0.0 mm 0.00 in0.0 mm 0.01 in0.3 mm
06:20 PM 56.7°F13.7°C 22.2°F-5.4°C 26% 6.5 mph E10.5 kmh E 8.3 mph13.4 kmh 29.71 in1006.1 mb 0.00 in0.0 mm 0.00 in0.0 mm 0.01 in0.3 mm
06:30 PM 56.3°F13.5°C 22.8°F-5.1°C 27% 6.9 mph E11.1 kmh E 12.1 mph19.5 kmh 29.70 in1005.8 mb 0.00 in0.0 mm 0.00 in0.0 mm 0.01 in0.3 mm
06:40 PM 55.9°F13.3°C 21.6°F-5.8°C 26% 4.4 mph E7.1 kmh E 11.4 mph18.3 kmh 29.71 in1006.1 mb 0.00 in0.0 mm 0.00 in0.0 mm 0.01 in0.3 mm
06:50 PM 55.9°F13.3°C 20.6°F-6.3°C 25% 8.1 mph NE13.0 kmh NE 9.8 mph15.8 kmh 29.71 in1006.1 mb 0.00 in0.0 mm 0.00 in0.0 mm 0.01 in0.3 mm
07:00 PM 55.4°F13.0°C 22.9°F-5.1°C 28% 6.2 mph E10.0 kmh E 9.8 mph15.8 kmh 29.71 in1006.1 mb 0.00 in0.0 mm 0.00 in0.0 mm 0.01 in0.3 mm
07:10 PM 54.7°F12.6°C 26.9°F-2.8°C 34% 2.9 mph NE4.7 kmh NE 6.9 mph11.1 kmh 29.71 in1006.1 mb 0.00 in0.0 mm 0.00 in0.0 mm 0.01 in0.3 mm
07:20 PM 53.2°F11.8°C 28.9°F-1.7°C 39% 2.8 mph ESE4.5 kmh ESE 5.4 mph8.7 kmh 29.72 in1006.4 mb 0.00 in0.0 mm 0.00 in0.0 mm 0.01 in0.3 mm
07:30 PM 52.5°F11.4°C 22.8°F-5.1°C 31% 3.5 mph E5.6 kmh E 6.0 mph9.7 kmh 29.72 in1006.4 mb 0.00 in0.0 mm 0.00 in0.0 mm 0.01 in0.3 mm
07:40 PM 50.5°F10.3°C 31.6°F-0.2°C 48% 1.4 mph NE2.3 kmh NE 3.1 mph5.0 kmh 29.72 in1006.4 mb 0.00 in0.0 mm 0.00 in0.0 mm 0.01 in0.3 mm
07:50 PM 48.9°F9.4°C 31.1°F-0.5°C 50% 1.8 mph N2.9 kmh N 2.2 mph3.5 kmh 29.73 in1006.8 mb 0.00 in0.0 mm 0.00 in0.0 mm 0.01 in0.3 mm
08:00 PM 46.9°F8.3°C 31.2°F-0.4°C 54% 1.1 mph NW1.8 kmh NW 1.6 mph2.6 kmh 29.73 in1006.8 mb 0.00 in0.0 mm 0.00 in0.0 mm 0.01 in0.3 mm
08:10 PM 44.6°F7.0°C 32.0°F0.0°C 61% 0.7 mph NW1.1 kmh NW 1.6 mph2.6 kmh 29.73 in1006.8 mb 0.00 in0.0 mm 0.00 in0.0 mm 0.01 in0.3 mm
08:20 PM 43.3°F6.3°C 32.0°F0.0°C 64% 0.1 mph W0.2 kmh W 0.7 mph1.1 kmh 29.74 in1007.1 mb 0.00 in0.0 mm 0.00 in0.0 mm 0.01 in0.3 mm
08:30 PM 42.3°F5.7°C 32.8°F0.4°C 69% Calm Calm -- 29.74 in1007.1 mb 0.00 in0.0 mm 0.00 in0.0 mm 0.01 in0.3 mm
08:40 PM 41.5°F5.3°C 32.9°F0.5°C 71% Calm Calm -- 29.75 in1007.5 mb 0.00 in0.0 mm 0.00 in0.0 mm 0.01 in0.3 mm
08:50 PM 40.6°F4.8°C 33.0°F0.6°C 74% Calm Calm -- 29.75 in1007.5 mb 0.00 in0.0 mm 0.00 in0.0 mm 0.01 in0.3 mm
09:00 PM 39.9°F4.4°C 33.0°F0.6°C 76% 0.2 mph SW0.3 kmh SW 1.6 mph2.6 kmh 29.75 in1007.5 mb 0.00 in0.0 mm 0.00 in0.0 mm 0.01 in0.3 mm
09:10 PM 39.2°F4.0°C 32.9°F0.5°C 78% 0.6 mph WSW1.0 kmh WSW 2.2 mph3.5 kmh 29.76 in1007.8 mb 0.00 in0.0 mm 0.00 in0.0 mm 0.01 in0.3 mm
09:20 PM 38.5°F3.6°C 32.2°F0.1°C 78% 0.7 mph SW1.1 kmh SW 1.6 mph2.6 kmh 29.77 in1008.1 mb 0.00 in0.0 mm 0.00 in0.0 mm 0.01 in0.3 mm
09:30 PM 37.9°F3.3°C 32.3°F0.2°C 80% 0.3 mph SW0.5 kmh SW 1.6 mph2.6 kmh 29.77 in1008.1 mb 0.00 in0.0 mm 0.00 in0.0 mm 0.01 in0.3 mm
09:40 PM 37.4°F3.0°C 32.4°F0.2°C 82% 0.6 mph SW1.0 kmh SW 1.6 mph2.6 kmh 29.77 in1008.1 mb 0.00 in0.0 mm 0.00 in0.0 mm 0.01 in0.3 mm
09:50 PM 36.9°F2.7°C 32.5°F0.3°C 84% 0.8 mph SW1.3 kmh SW 2.2 mph3.5 kmh 29.78 in1008.5 mb 0.00 in0.0 mm 0.00 in0.0 mm 0.01 in0.3 mm
10:00 PM 36.5°F2.5°C 32.1°F0.1°C 84% 0.4 mph SW0.6 kmh SW 1.6 mph2.6 kmh 29.78 in1008.5 mb 0.00 in0.0 mm 0.00 in0.0 mm 0.01 in0.3 mm
10:10 PM 36.0°F2.2°C 31.6°F-0.2°C 84% 0.4 mph S0.6 kmh S 0.7 mph1.1 kmh 29.79 in1008.8 mb 0.00 in0.0 mm 0.00 in0.0 mm 0.01 in0.3 mm
10:20 PM 35.6°F2.0°C 31.5°F-0.3°C 85% Calm Calm -- 29.79 in1008.8 mb 0.00 in0.0 mm 0.00 in0.0 mm 0.01 in0.3 mm
10:30 PM 35.2°F1.8°C 31.5°F-0.3°C 86% 0.4 mph SSW0.6 kmh SSW 1.6 mph2.6 kmh 29.79 in1008.8 mb 0.00 in0.0 mm 0.00 in0.0 mm 0.01 in0.3 mm
10:40 PM 34.9°F1.6°C 31.4°F-0.3°C 87% Calm Calm 0.7 mph1.1 kmh 29.79 in1008.8 mb 0.00 in0.0 mm 0.00 in0.0 mm 0.01 in0.3 mm
10:50 PM 34.3°F1.3°C 30.6°F-0.8°C 86% Calm Calm -- 29.80 in1009.1 mb 0.00 in0.0 mm 0.00 in0.0 mm 0.01 in0.3 mm
11:00 PM 34.0°F1.1°C 30.5°F-0.8°C 87% 0.1 mph SW0.2 kmh SW 1.6 mph2.6 kmh 29.81 in1009.5 mb 0.00 in0.0 mm 0.00 in0.0 mm 0.01 in0.3 mm
11:10 PM 33.8°F1.0°C 30.6°F-0.8°C 88% Calm Calm -- 29.81 in1009.5 mb 0.00 in0.0 mm 0.00 in0.0 mm 0.01 in0.3 mm
11:20 PM 33.4°F0.8°C 30.3°F-0.9°C 88% Calm Calm 0.7 mph1.1 kmh 29.82 in1009.8 mb 0.00 in0.0 mm 0.00 in0.0 mm 0.01 in0.3 mm
11:30 PM 33.1°F0.6°C 30.2°F-1.0°C 89% 0.2 mph SW0.3 kmh SW 0.7 mph1.1 kmh 29.82 in1009.8 mb 0.00 in0.0 mm 0.00 in0.0 mm 0.01 in0.3 mm
11:40 PM 32.9°F0.5°C 30.0°F-1.1°C 89% 0.2 mph SW0.3 kmh SW 0.7 mph1.1 kmh 29.82 in1009.8 mb 0.00 in0.0 mm 0.00 in0.0 mm 0.01 in0.3 mm
11:50 PM 32.5°F0.3°C 29.9°F-1.2°C 90% 0.3 mph SW0.5 kmh SW 0.7 mph1.1 kmh 29.83 in1010.2 mb 0.00 in0.0 mm 0.00 in0.0 mm 0.01 in0.3 mm